Time;durP1;ratioP1;P1;durP2;ratioP2;P2;SDS_P1;SDS_P2;PMS_P1;PMS_P2;Temp;Humidity;BMP_temperature;BMP_pressure;BME280_temperature;BME280_humidity;BME280_pressure;Samples;Min_cycle;Max_cycle;Signal;HPM_P1;HPM_P2
2022/11/06 00:00:41;;;;;;;11.67;10.57;;;6.40;99.90;;;;;;4882466;29;20462;-80
2022/11/06 00:03:10;;;;;;;10.20;9.40;;;6.50;1.00;;;;;;4886584;29;20501;-79
2022/11/06 00:08:29;;;;;;;10.97;10.00;;;6.50;89.30;;;;;;4884989;29;20492;-81
2022/11/06 00:10:57;;;;;;;10.50;9.70;;;6.50;1.00;;;;;;4884699;29;20463;-80
2022/11/06 00:13:27;;;;;;;9.83;8.87;;;6.70;99.90;;;;;;4881880;29;20519;-80
2022/11/06 00:15:55;;;;;;;10.60;9.80;;;6.70;99.90;;;;;;4883353;29;20491;-80
2022/11/06 00:18:27;;;;;;;13.00;10.00;;;6.60;99.90;;;;;;4883593;29;20515;-79
2022/11/06 00:20:55;;;;;;;10.57;9.67;;;6.60;1.00;;;;;;4881256;29;21227;-80
2022/11/06 00:23:23;;;;;;;11.50;10.20;;;6.60;1.00;;;;;;4880556;29;20615;-80
2022/11/06 00:25:55;;;;;;;10.63;9.53;;;6.60;99.90;;;;;;4880428;29;20570;-79
2022/11/06 00:28:23;;;;;;;10.80;9.83;;;6.70;99.90;;;;;;4880362;29;20555;-79
2022/11/06 00:31:01;;;;;;;12.30;11.00;;;7.10;99.90;;;;;;4883158;29;20967;-79
2022/11/06 00:33:29;;;;;;;11.13;10.23;;;7.00;99.90;;;;;;4881661;29;20547;-78
2022/11/06 00:35:57;;;;;;;10.40;9.33;;;6.80;99.90;;;;;;4885550;29;20512;-79
2022/11/06 00:38:25;;;;;;;11.57;10.40;;;6.60;1.00;;;;;;4880906;29;20523;-82
2022/11/06 00:40:53;;;;;;;10.77;9.80;;;6.70;99.90;;;;;;4881327;29;20554;-79
2022/11/06 00:43:22;;;;;;;11.40;10.33;;;6.70;93.00;;;;;;4880374;29;20470;-81
2022/11/06 00:45:50;;;;;;;10.57;9.60;;;6.90;99.90;;;;;;4878107;29;20490;-78
2022/11/06 00:48:19;;;;;;;10.97;9.83;;;6.80;99.90;;;;;;4878996;29;20547;-79
2022/11/06 00:50:47;;;;;;;10.57;9.67;;;6.70;1.00;;;;;;4876787;29;20479;-79
2022/11/06 00:53:16;;;;;;;11.40;10.37;;;6.50;99.90;;;;;;4877809;29;20989;-80
2022/11/06 00:55:44;;;;;;;9.93;9.03;;;6.40;1.00;;;;;;4880145;29;20484;-80
2022/11/06 00:58:12;;;;;;;9.43;8.63;;;6.40;1.00;;;;;;4877932;29;20915;-80
2022/11/06 01:00:40;;;;;;;9.90;9.13;;;6.40;1.00;;;;;;4878449;29;20452;-80
2022/11/06 01:03:09;;;;;;;10.47;9.47;;;6.30;99.90;;;;;;4877704;29;20477;-79
2022/11/06 01:05:38;;;;;;;10.70;9.77;;;6.40;99.90;;;;;;4879756;29;20480;-79
2022/11/06 01:08:07;;;;;;;11.00;9.97;;;6.40;12.20;;;;;;4878454;29;20456;-80
2022/11/06 01:10:37;;;;;;;9.50;8.70;;;6.50;1.00;;;;;;4880752;29;20466;-80
2022/11/06 01:13:05;;;;;;;9.40;8.70;;;6.50;99.90;;;;;;4879528;29;21031;-80
2022/11/06 01:15:36;;;;;;;8.87;8.10;;;6.40;1.00;;;;;;4876971;29;20989;-80
2022/11/06 01:18:04;;;;;;;9.03;8.20;;;6.40;99.90;;;;;;4883029;29;20657;-80
2022/11/06 01:20:33;;;;;;;9.13;8.33;;;6.40;1.00;;;;;;4878578;29;20463;-81
2022/11/06 01:23:02;;;;;;;9.87;9.07;;;6.30;99.90;;;;;;4883493;29;20462;-80
2022/11/06 01:25:30;;;;;;;8.50;7.90;;;6.30;99.90;;;;;;4886601;29;20484;-81
2022/11/06 01:27:59;;;;;;;9.60;8.70;;;6.20;99.90;;;;;;4885459;29;20458;-81
2022/11/06 01:30:27;;;;;;;9.50;8.60;;;6.10;99.90;;;;;;4886598;29;20567;-81
2022/11/06 01:32:55;;;;;;;8.87;8.13;;;6.10;99.90;;;;;;4884801;29;20446;-80
2022/11/06 01:35:23;;;;;;;9.23;8.40;;;6.20;99.90;;;;;;4887977;29;20490;-81
2022/11/06 01:37:51;;;;;;;8.15;7.63;;;6.00;1.00;;;;;;4885866;29;20489;-82
2022/11/06 01:40:21;;;;;;;8.97;8.33;;;6.00;1.00;;;;;;4886335;29;20206;-81
2022/11/06 01:42:50;;;;;;;9.10;8.40;;;5.90;99.90;;;;;;4881854;29;20983;-82
2022/11/06 01:45:31;;;;;;;9.93;9.00;;;5.80;99.90;;;;;;4883758;29;20486;-81
2022/11/06 01:48:00;;;;;;;9.37;8.47;;;5.80;1.00;;;;;;4883646;29;21054;-81
2022/11/06 01:50:28;;;;;;;9.60;8.90;;;6.00;99.90;;;;;;4878835;29;20476;-80
2022/11/06 01:52:59;;;;;;;10.93;10.03;;;6.00;99.90;;;;;;4880439;29;20491;-80
2022/11/06 01:55:33;;;;;;;10.03;9.27;;;5.80;1.00;;;;;;4884014;29;20480;-81
2022/11/06 01:58:03;;;;;;;9.70;8.80;;;5.90;70.50;;;;;;4876866;29;20540;-80
2022/11/06 02:00:31;;;;;;;9.60;8.70;;;5.80;99.90;;;;;;4884403;29;20562;-81
2022/11/06 02:03:00;;;;;;;10.50;9.30;;;5.80;56.20;;;;;;4882534;29;20459;-81
2022/11/06 02:05:29;;;;;;;10.00;9.20;;;5.70;99.90;;;;;;4885552;29;20537;-81
2022/11/06 02:07:59;;;;;;;10.33;9.50;;;5.60;99.90;;;;;;4885527;29;20848;-81
2022/11/06 02:10:29;;;;;;;9.73;8.93;;;5.60;99.90;;;;;;4886909;29;20457;-81
2022/11/06 02:13:14;;;;;;;9.33;8.43;;;5.80;1.00;;;;;;4887359;29;20486;-81
2022/11/06 02:15:49;;;;;;;9.83;8.80;;;5.90;99.90;;;;;;4890203;29;20583;-81
2022/11/06 02:18:49;;;;;;;9.87;8.97;;;6.00;1.00;;;;;;4886185;29;20577;-80
2022/11/06 02:21:58;;;;;;;10.93;8.70;;;6.10;1.00;;;;;;4885964;29;20474;-80
2022/11/06 02:24:51;;;;;;;13.10;8.97;;;6.00;1.00;;;;;;4891957;29;20562;-81
2022/11/06 02:27:24;;;;;;;8.93;8.13;;;6.00;99.90;;;;;;4900045;29;20570;-82
2022/11/06 02:30:00;;;;;;;8.50;7.77;;;5.90;99.90;;;;;;4886956;29;20501;-80
2022/11/06 02:32:33;;;;;;;9.13;8.27;;;5.90;99.90;;;;;;4897103;29;20531;-79
2022/11/06 02:35:04;;;;;;;9.97;9.27;;;6.00;68.80;;;;;;4886815;29;20877;-79
2022/11/06 02:37:36;;;;;;;8.45;7.85;;;6.20;99.90;;;;;;4883466;29;20906;-80
2022/11/06 02:40:08;;;;;;;8.70;8.00;;;6.20;1.00;;;;;;4884259;29;20249;-80
2022/11/06 02:42:43;;;;;;;9.30;8.50;;;6.10;99.90;;;;;;4883214;29;20552;-80
2022/11/06 02:45:14;;;;;;;9.30;8.40;;;6.10;99.90;;;;;;4883514;29;20495;-81
2022/11/06 02:47:43;;;;;;;8.40;7.78;;;6.10;1.00;;;;;;4885551;29;20619;-79
2022/11/06 02:50:14;;;;;;;8.70;7.90;;;6.20;99.90;;;;;;4885083;29;20280;-80
2022/11/06 02:52:47;;;;;;;9.00;8.20;;;6.30;99.90;;;;;;4892875;29;20463;-80
2022/11/06 02:55:19;;;;;;;10.37;8.90;;;6.40;1.00;;;;;;4881676;29;20510;-80
2022/11/06 02:57:53;;;;;;;7.57;6.93;;;6.30;99.90;;;;;;4884547;29;20570;-80
2022/11/06 03:00:24;;;;;;;9.67;8.63;;;6.20;1.00;;;;;;4884412;29;20907;-79
2022/11/06 03:02:56;;;;;;;7.73;7.23;;;6.30;1.00;;;;;;4882563;29;20536;-80
2022/11/06 03:05:30;;;;;;;8.00;7.30;;;6.30;99.90;;;;;;4886718;29;20614;-80
2022/11/06 03:08:03;;;;;;;8.50;7.80;;;6.30;99.90;;;;;;4885070;29;20500;-79
2022/11/06 03:10:39;;;;;;;7.83;7.23;;;6.20;1.00;;;;;;4885417;29;20553;-79
2022/11/06 03:13:17;;;;;;;8.23;7.63;;;6.30;1.00;;;;;;4884724;29;20553;-79
2022/11/06 03:15:57;;;;;;;9.20;8.23;;;6.30;99.90;;;;;;4880365;29;21436;-79
2022/11/06 03:18:30;;;;;;;8.17;7.50;;;6.20;1.00;;;;;;4882531;29;20492;-79
2022/11/06 03:21:04;;;;;;;8.37;7.67;;;6.10;1.00;;;;;;4884516;29;20460;-80
2022/11/06 03:23:38;;;;;;;8.67;7.90;;;6.20;1.00;;;;;;4887611;29;21045;-81
2022/11/06 03:26:13;;;;;;;8.63;7.83;;;6.40;99.90;;;;;;4889765;29;20514;-80
2022/11/06 03:28:51;;;;;;;11.77;10.10;;;6.20;99.90;;;;;;4889350;29;20500;-79
2022/11/06 03:31:26;;;;;;;8.70;8.00;;;6.10;99.90;;;;;;4892564;29;20854;-80
2022/11/06 03:33:58;;;;;;;8.80;8.10;;;6.10;99.90;;;;;;4890189;29;20454;-80
2022/11/06 03:36:31;;;;;;;8.53;7.83;;;6.10;1.00;;;;;;4888407;29;20550;-80
2022/11/06 03:39:02;;;;;;;8.00;7.40;;;6.10;99.90;;;;;;4891826;29;20470;-79
2022/11/06 03:41:37;;;;;;;8.07;7.37;;;6.10;99.90;;;;;;4887442;29;20827;-82
2022/11/06 03:44:12;;;;;;;8.67;8.07;;;6.20;99.90;;;;;;4890633;29;20454;-79
2022/11/06 03:46:46;;;;;;;9.07;8.17;;;6.00;99.90;;;;;;4893364;29;20482;-80
2022/11/06 03:49:22;;;;;;;8.27;7.57;;;6.00;99.90;;;;;;4891567;29;20538;-82
2022/11/06 03:51:54;;;;;;;8.45;7.75;;;6.00;1.00;;;;;;4883333;29;20309;-80
2022/11/06 03:54:26;;;;;;;8.73;8.03;;;6.10;99.90;;;;;;4885581;29;20226;-80
2022/11/06 03:56:59;;;;;;;9.10;8.13;;;6.00;99.90;;;;;;4885004;29;20470;-80
2022/11/06 03:59:34;;;;;;;9.57;8.70;;;6.00;12.00;;;;;;4889331;29;20526;-81
2022/11/06 04:02:03;;;;;;;8.57;7.80;;;5.90;99.90;;;;;;4883806;29;20218;-81
2022/11/06 04:04:38;;;;;;;9.13;8.23;;;5.90;99.90;;;;;;4885288;29;20477;-80
2022/11/06 04:07:10;;;;;;;9.30;8.30;;;5.80;1.00;;;;;;4887694;29;20458;-80
2022/11/06 04:15:19;;;;;;;7.80;7.20;;;5.90;1.00;;;;;;4884197;29;20489;-81
2022/11/06 04:17:48;;;;;;;8.27;7.60;;;5.70;1.00;;;;;;4882266;29;20454;-79
2022/11/06 04:23:10;;;;;;;7.88;7.38;;;5.90;1.00;;;;;;4892936;29;20446;-80
2022/11/06 04:28:48;;;;;;;8.18;7.47;;;5.70;1.00;;;;;;4888861;29;20550;-80
2022/11/06 04:31:28;;;;;;;8.00;7.40;;;5.70;1.00;;;;;;4884662;29;20211;-80
2022/11/06 04:34:01;;;;;;;7.68;7.05;;;5.50;1.00;;;;;;4883472;29;20466;-79
2022/11/06 04:36:38;;;;;;;7.57;6.97;;;5.30;1.00;;;;;;4885401;29;20223;-79
2022/11/06 04:39:17;;;;;;;7.73;7.03;;;5.30;3.50;;;;;;4883963;29;20579;-79
2022/11/06 04:41:52;;;;;;;7.20;6.50;;;5.30;99.90;;;;;;4885868;29;20473;-79
2022/11/06 04:44:26;;;;;;;7.03;6.53;;;5.30;1.00;;;;;;4886336;29;20689;-80
2022/11/06 04:47:00;;;;;;;7.13;6.63;;;5.20;1.00;;;;;;4889594;29;20217;-81
2022/11/06 04:49:31;;;;;;;7.43;6.72;;;5.10;1.00;;;;;;4889225;29;20474;-82
2022/11/06 04:52:02;;;;;;;7.63;7.00;;;5.10;1.00;;;;;;4885745;29;20328;-80
2022/11/06 04:54:31;;;;;;;7.57;7.03;;;4.90;1.00;;;;;;4886094;29;20209;-78
2022/11/06 04:57:00;;;;;;;7.10;6.55;;;5.00;1.00;;;;;;4884468;29;20704;-80
2022/11/06 04:59:30;;;;;;;7.80;7.00;;;5.00;1.00;;;;;;4887013;29;20230;-80
2022/11/06 05:01:59;;;;;;;7.72;7.03;;;5.00;1.00;;;;;;4885108;29;20218;-80
2022/11/06 05:04:27;;;;;;;7.32;6.72;;;4.90;99.90;;;;;;4886936;29;20202;-80
2022/11/06 05:06:55;;;;;;;8.02;7.38;;;4.90;99.90;;;;;;4888938;29;20241;-80
2022/11/06 05:09:24;;;;;;;7.60;7.10;;;4.80;99.90;;;;;;4883189;29;20205;-79
2022/11/06 05:11:52;;;;;;;7.47;6.82;;;4.80;99.90;;;;;;4880970;29;20289;-80
2022/11/06 05:14:20;;;;;;;7.70;7.00;;;4.80;99.90;;;;;;4886456;29;20213;-79
2022/11/06 05:16:48;;;;;;;6.82;6.32;;;4.80;99.90;;;;;;4886352;29;20309;-81
2022/11/06 05:19:17;;;;;;;6.90;6.47;;;4.80;99.90;;;;;;4885588;29;20937;-80
2022/11/06 05:24:31;;;;;;;6.80;6.30;;;4.60;99.90;;;;;;4884441;29;20552;-78
2022/11/06 05:26:59;;;;;;;6.32;5.97;;;4.60;99.90;;;;;;4886373;29;20198;-80
2022/11/06 05:29:27;;;;;;;6.70;6.20;;;4.50;99.90;;;;;;4886894;29;20210;-80
2022/11/06 05:31:55;;;;;;;6.40;5.90;;;4.40;99.90;;;;;;4884360;29;20211;-81
2022/11/06 05:34:25;;;;;;;5.53;5.13;;;4.30;99.90;;;;;;4890900;29;20275;-80
2022/11/06 05:36:53;;;;;;;6.30;5.72;;;4.30;99.90;;;;;;4886681;29;20489;-80
2022/11/06 05:39:21;;;;;;;6.35;5.80;;;4.30;99.90;;;;;;4884659;29;20777;-80
2022/11/06 05:41:49;;;;;;;5.80;5.40;;;4.10;99.90;;;;;;4883559;29;20305;-79
2022/11/06 05:44:17;;;;;;;5.90;5.50;;;3.90;1.00;;;;;;4891505;29;20939;-80
2022/11/06 05:46:45;;;;;;;6.60;6.00;;;4.00;99.90;;;;;;4885172;29;20319;-81
2022/11/06 05:49:17;;;;;;;5.43;5.05;;;4.20;1.00;;;;;;4884294;29;20211;-80
2022/11/06 05:51:48;;;;;;;6.75;6.25;;;4.30;1.00;;;;;;4883207;29;20211;-80
2022/11/06 05:54:16;;;;;;;6.43;5.93;;;4.40;1.00;;;;;;4887763;29;20281;-79
2022/11/06 05:56:44;;;;;;;6.00;5.50;;;4.40;1.00;;;;;;4882194;29;20256;-77
2022/11/06 05:59:12;;;;;;;6.00;5.60;;;4.40;1.00;;;;;;4879725;29;20275;-79
2022/11/06 06:01:40;;;;;;;6.40;5.80;;;4.40;1.00;;;;;;4885470;29;20242;-79
2022/11/06 06:04:08;;;;;;;14.38;13.07;;;4.50;1.00;;;;;;4885237;29;20265;-80
2022/11/06 06:06:38;;;;;;;5.70;5.40;;;4.50;1.00;;;;;;4880977;29;20597;-80
2022/11/06 06:09:07;;;;;;;7.13;6.55;;;4.50;1.00;;;;;;4883373;29;20202;-80
2022/11/06 06:11:35;;;;;;;9.18;8.48;;;4.60;1.00;;;;;;4878171;29;20721;-79
2022/11/06 06:14:03;;;;;;;8.82;8.02;;;4.60;1.00;;;;;;4880145;29;20672;-79
2022/11/06 06:16:32;;;;;;;8.55;7.95;;;4.40;99.90;;;;;;4881851;29;20758;-78
2022/11/06 06:19:00;;;;;;;8.75;8.05;;;4.40;99.90;;;;;;4881985;29;20249;-79
2022/11/06 06:21:28;;;;;;;23.50;21.38;;;4.40;99.90;;;;;;4882080;29;20222;-81
2022/11/06 06:23:57;;;;;;;8.65;7.95;;;4.30;1.00;;;;;;4880848;29;20293;-80
2022/11/06 06:26:26;;;;;;;7.03;6.50;;;4.40;99.50;;;;;;4886967;29;20255;-79
2022/11/06 06:28:54;;;;;;;6.88;6.32;;;4.50;56.10;;;;;;4886995;29;20207;-79
2022/11/06 06:31:22;;;;;;;6.65;6.20;;;4.50;99.90;;;;;;4886575;29;20587;-78
2022/11/06 06:33:51;;;;;;;6.43;5.90;;;4.60;99.90;;;;;;4884838;29;20201;-79
2022/11/06 06:36:19;;;;;;;6.45;6.00;;;4.70;87.20;;;;;;4883005;29;20317;-79
2022/11/06 06:38:47;;;;;;;5.63;5.22;;;4.70;5.00;;;;;;4880511;29;20210;-82
2022/11/06 06:41:15;;;;;;;5.50;5.20;;;4.70;84.20;;;;;;4882235;29;20227;-79
2022/11/06 06:43:48;;;;;;;6.07;5.57;;;4.80;99.90;;;;;;4883838;29;20636;-79
2022/11/06 06:46:16;;;;;;;6.80;6.22;;;4.90;99.90;;;;;;4884634;29;20262;-81
2022/11/06 06:48:45;;;;;;;5.82;5.40;;;4.90;99.90;;;;;;4887750;29;20707;-80
2022/11/06 06:51:13;;;;;;;6.00;5.60;;;4.90;1.00;;;;;;4884799;29;20187;-80
2022/11/06 06:53:47;;;;;;;6.72;6.30;;;5.00;1.00;;;;;;4887521;29;20291;-81
2022/11/06 06:56:15;;;;;;;45.75;26.33;;;5.10;1.00;;;;;;4888924;29;20322;-80
2022/11/06 06:58:44;;;;;;;197.02;92.43;;;5.30;99.90;;;;;;4882400;29;20227;-77
2022/11/06 07:01:13;;;;;;;15.18;10.30;;;5.20;1.00;;;;;;4880733;29;20218;-77
2022/11/06 07:03:41;;;;;;;163.90;88.38;;;5.30;1.00;;;;;;4886579;29;20622;-81
2022/11/06 07:06:09;;;;;;;65.78;41.13;;;5.50;1.00;;;;;;4888061;29;20231;-81
2022/11/06 07:08:38;;;;;;;35.92;25.58;;;5.60;99.90;;;;;;4888027;29;20202;-79
2022/11/06 07:11:08;;;;;;;24.92;18.80;;;5.60;41.30;;;;;;4881032;29;20758;-80
2022/11/06 07:13:36;;;;;;;22.73;20.30;;;5.70;99.90;;;;;;4881319;29;20217;-83
2022/11/06 07:16:07;;;;;;;8.88;8.18;;;5.70;38.70;;;;;;4886202;29;20479;-80
2022/11/06 07:18:37;;;;;;;7.80;7.28;;;6.00;1.00;;;;;;4888441;29;20223;-81
2022/11/06 07:21:06;;;;;;;7.90;7.20;;;6.30;1.00;;;;;;4896496;29;20773;-82
2022/11/06 07:23:35;;;;;;;21.35;16.40;;;6.20;1.00;;;;;;4883622;29;20464;-81
2022/11/06 07:26:04;;;;;;;16.20;14.37;;;6.10;1.00;;;;;;4882184;29;20282;-81
2022/11/06 07:28:33;;;;;;;19.10;16.47;;;6.10;1.00;;;;;;4905649;29;21086;-82
2022/11/06 07:31:02;;;;;;;17.63;14.80;;;6.40;1.00;;;;;;4888736;29;20463;-81
2022/11/06 07:33:32;;;;;;;11.83;10.67;;;6.50;1.00;;;;;;4881287;29;20550;-80
2022/11/06 07:36:04;;;;;;;9.63;8.70;;;6.60;99.90;;;;;;4884109;29;20548;-81
2022/11/06 07:38:34;;;;;;;11.80;10.60;;;6.90;99.90;;;;;;4884646;29;20499;-81
2022/11/06 07:41:03;;;;;;;13.00;11.67;;;7.00;99.90;;;;;;4886808;29;20574;-79
2022/11/06 07:43:31;;;;;;;14.13;12.00;;;7.10;99.90;;;;;;4883660;29;20558;-80
2022/11/06 07:46:00;;;;;;;10.53;9.63;;;7.30;99.90;;;;;;4888336;29;20478;-81
2022/11/06 07:48:29;;;;;;;8.33;7.73;;;7.50;99.90;;;;;;4894358;29;20471;-81
2022/11/06 07:51:01;;;;;;;7.53;7.03;;;7.60;95.00;;;;;;4889951;29;20459;-80
2022/11/06 07:53:29;;;;;;;7.50;6.90;;;7.60;59.90;;;;;;4892771;29;20452;-81
2022/11/06 07:55:57;;;;;;;7.33;6.83;;;7.90;47.90;;;;;;4887289;29;20767;-81
2022/11/06 07:58:26;;;;;;;7.30;6.80;;;7.70;1.00;;;;;;4896898;29;20561;-82
2022/11/06 08:00:55;;;;;;;8.00;7.43;;;7.70;1.00;;;;;;4892251;29;20477;-81
2022/11/06 08:03:25;;;;;;;8.00;7.33;;;7.90;1.00;;;;;;4892228;29;20486;-83
2022/11/06 08:05:53;;;;;;;7.30;6.80;;;8.20;1.00;;;;;;4892133;29;20482;-82
2022/11/06 08:08:22;;;;;;;8.43;7.63;;;8.40;1.00;;;;;;4882140;29;20474;-82
2022/11/06 08:10:52;;;;;;;7.20;6.67;;;8.60;1.00;;;;;;4887899;29;20549;-84
2022/11/06 08:13:20;;;;;;;7.70;7.20;;;8.50;1.00;;;;;;4888897;29;20472;-82
2022/11/06 08:15:49;;;;;;;6.60;6.20;;;8.80;1.00;;;;;;4891055;29;20484;-83
2022/11/06 08:18:17;;;;;;;7.57;6.97;;;8.90;1.00;;;;;;4889611;29;20493;-83
2022/11/06 08:20:45;;;;;;;8.33;7.73;;;8.90;1.00;;;;;;4892565;29;20838;-83
2022/11/06 08:23:13;;;;;;;7.90;7.40;;;9.30;1.00;;;;;;4890941;29;20455;-83
2022/11/06 08:25:43;;;;;;;8.80;8.10;;;9.50;1.00;;;;;;4891581;29;20523;-82
2022/11/06 08:28:11;;;;;;;8.10;7.40;;;9.50;1.00;;;;;;4894039;29;20526;-81
2022/11/06 08:30:40;;;;;;;8.53;7.93;;;9.70;1.00;;;;;;4906130;29;20488;-81
2022/11/06 08:33:11;;;;;;;7.77;7.23;;;9.50;1.00;;;;;;4890566;29;20458;-82
2022/11/06 08:35:39;;;;;;;8.00;7.50;;;9.70;1.00;;;;;;4893963;29;20473;-83
2022/11/06 08:38:07;;;;;;;7.77;7.20;;;9.70;1.00;;;;;;4888872;29;20904;-82
2022/11/06 08:40:37;;;;;;;8.40;7.60;;;9.60;1.00;;;;;;4888126;29;20462;-82
2022/11/06 08:43:09;;;;;;;7.87;7.20;;;9.50;99.90;;;;;;4889631;29;20465;-83
2022/11/06 08:45:38;;;;;;;8.20;7.60;;;9.60;99.90;;;;;;4894164;29;20501;-82
2022/11/06 08:48:07;;;;;;;8.13;7.53;;;9.40;99.90;;;;;;4888982;29;20940;-82
2022/11/06 08:50:37;;;;;;;8.07;7.57;;;9.50;1.00;;;;;;4893992;29;20967;-84
2022/11/06 08:53:06;;;;;;;8.60;8.07;;;9.60;1.00;;;;;;4891111;29;21080;-82
2022/11/06 08:55:36;;;;;;;7.80;7.30;;;10.30;1.00;;;;;;4892205;29;20478;-83
2022/11/06 08:58:06;;;;;;;8.80;8.13;;;10.30;99.90;;;;;;4891555;29;20471;-82
2022/11/06 09:00:35;;;;;;;8.40;7.80;;;10.10;99.90;;;;;;4889066;29;20468;-82
2022/11/06 09:03:05;;;;;;;8.57;7.87;;;9.60;99.90;;;;;;4887437;29;20485;-84
2022/11/06 09:05:34;;;;;;;9.23;8.50;;;9.60;1.00;;;;;;4892577;29;20483;-82
2022/11/06 09:08:02;;;;;;;9.60;8.77;;;9.80;1.00;;;;;;4886930;29;21156;-83
2022/11/06 09:10:30;;;;;;;17.40;14.43;;;9.90;1.00;;;;;;4882905;29;20529;-81
2022/11/06 09:12:59;;;;;;;11.00;10.10;;;10.30;1.00;;;;;;4887343;29;20503;-81
2022/11/06 09:15:28;;;;;;;21.93;17.97;;;10.40;1.00;;;;;;4888831;29;20487;-82
2022/11/06 09:17:57;;;;;;;12.70;11.47;;;10.50;99.90;;;;;;4887897;29;20970;-83
2022/11/06 09:20:26;;;;;;;7.80;7.30;;;11.10;99.90;;;;;;4892780;29;20466;-82
2022/11/06 09:22:54;;;;;;;8.53;7.87;;;11.50;99.90;;;;;;4890960;29;20493;-83
2022/11/06 09:25:22;;;;;;;7.53;7.03;;;11.70;99.90;;;;;;4891483;29;20906;-82
2022/11/06 09:27:53;;;;;;;8.10;7.60;;;12.20;99.90;;;;;;4885973;29;20471;-82
2022/11/06 09:30:29;;;;;;;8.40;8.00;;;12.90;99.90;;;;;;4891950;29;20971;-81
2022/11/06 09:32:59;;;;;;;7.50;7.20;;;13.40;99.90;;;;;;4888434;29;20450;-84
2022/11/06 09:35:29;;;;;;;6.97;6.67;;;13.80;99.90;;;;;;4887161;29;20481;-82
2022/11/06 09:38:02;;;;;;;7.20;6.90;;;14.20;99.90;;;;;;4887183;29;20471;-83
2022/11/06 09:40:34;;;;;;;7.03;6.73;;;14.40;99.90;;;;;;4884139;29;21071;-83
2022/11/06 09:43:28;;;;;;;7.53;7.13;;;14.60;99.90;;;;;;4883746;29;20486;-83
2022/11/06 09:46:22;;;;;;;6.93;6.63;;;15.20;99.90;;;;;;4887510;29;20506;-82
2022/11/06 09:48:57;;;;;;;6.33;6.03;;;15.00;99.90;;;;;;4889723;29;20491;-82
2022/11/06 09:51:36;;;;;;;8.17;7.77;;;15.60;99.90;;;;;;4888549;29;20468;-81
2022/11/06 09:54:13;;;;;;;8.67;8.17;;;16.30;99.90;;;;;;4904552;29;20468;-83
2022/11/06 09:56:43;;;;;;;8.40;8.00;;;17.40;99.90;;;;;;4890706;29;20484;-82
2022/11/06 09:59:15;;;;;;;7.67;7.17;;;18.50;99.90;;;;;;4890003;29;20458;-81
2022/11/06 10:01:48;;;;;;;7.23;6.83;;;19.30;99.90;;;;;;4889127;29;20525;-81
2022/11/06 10:04:26;;;;;;;7.60;7.20;;;20.10;99.90;;;;;;4891342;29;20499;-82
2022/11/06 10:06:55;;;;;;;7.10;6.60;;;20.70;99.90;;;;;;4891039;29;20487;-84
2022/11/06 10:09:23;;;;;;;6.17;5.87;;;21.50;99.90;;;;;;4888217;29;20475;-83
2022/11/06 10:12:02;;;;;;;6.87;6.47;;;20.10;99.90;;;;;;4888107;29;20889;-83
2022/11/06 10:14:51;;;;;;;6.40;6.10;;;18.40;99.90;;;;;;4889456;29;20566;-83
2022/11/06 10:17:33;;;;;;;6.07;5.77;;;19.50;99.90;;;;;;4891255;29;20456;-83
2022/11/06 10:20:11;;;;;;;6.47;6.17;;;19.90;99.90;;;;;;4888406;29;21304;-83
2022/11/06 10:22:41;;;;;;;6.00;5.70;;;20.50;99.90;;;;;;4901193;29;21031;-83
2022/11/06 10:25:20;;;;;;;6.20;5.90;;;20.70;99.90;;;;;;4888171;29;20538;-82
2022/11/06 10:28:01;;;;;;;5.70;5.50;;;18.80;99.90;;;;;;4885289;29;20493;-81
2022/11/06 10:30:37;;;;;;;5.87;5.57;;;18.60;99.90;;;;;;4889915;29;20458;-82
2022/11/06 10:33:24;;;;;;;5.70;5.40;;;19.70;99.90;;;;;;4887262;29;20522;-83
2022/11/06 10:35:59;;;;;;;5.30;5.10;;;19.50;99.90;;;;;;4889117;29;20494;-82
2022/11/06 10:38:30;;;;;;;6.13;5.93;;;19.50;99.90;;;;;;4891728;29;20462;-82
2022/11/06 10:40:58;;;;;;;6.30;5.80;;;19.70;99.90;;;;;;4887177;29;20501;-82
2022/11/06 10:43:31;;;;;;;6.27;5.87;;;18.80;99.90;;;;;;4885882;29;21297;-81
2022/11/06 10:46:09;;;;;;;5.60;5.30;;;17.00;99.90;;;;;;4886635;29;20550;-82
2022/11/06 10:48:43;;;;;;;5.90;5.60;;;16.60;99.90;;;;;;4885771;29;20468;-83
2022/11/06 10:51:31;;;;;;;6.00;5.60;;;16.30;99.90;;;;;;4889168;29;20497;-82
2022/11/06 10:54:14;;;;;;;5.60;5.30;;;15.40;99.90;;;;;;4887650;29;20515;-81
2022/11/06 10:56:54;;;;;;;6.00;5.60;;;14.90;99.90;;;;;;4887127;29;20479;-83
2022/11/06 10:59:22;;;;;;;5.90;5.60;;;14.80;99.90;;;;;;4889825;29;20529;-83
2022/11/06 11:01:50;;;;;;;4.40;4.20;;;14.50;99.90;;;;;;4887727;29;20455;-81
2022/11/06 11:04:20;;;;;;;3.90;3.70;;;14.40;99.90;;;;;;4887025;29;20456;-82
2022/11/06 11:06:48;;;;;;;4.60;4.23;;;14.80;99.90;;;;;;4896782;29;20470;-82
2022/11/06 11:09:28;;;;;;;4.27;4.07;;;14.80;99.90;;;;;;4884322;29;20505;-82
2022/11/06 11:11:57;;;;;;;4.40;4.10;;;14.80;99.90;;;;;;4889449;29;20510;-81
2022/11/06 11:14:26;;;;;;;4.10;3.90;;;14.10;99.90;;;;;;4883560;29;20489;-81
2022/11/06 11:16:55;;;;;;;3.57;3.47;;;14.10;99.90;;;;;;4889188;29;20489;-83
2022/11/06 11:19:33;;;;;;;3.80;3.60;;;13.90;99.90;;;;;;4887119;29;20953;-81
2022/11/06 11:22:03;;;;;;;4.10;3.90;;;13.60;99.90;;;;;;4888132;29;20466;-82
2022/11/06 11:24:31;;;;;;;4.10;3.90;;;13.40;99.90;;;;;;4891284;29;20476;-83
2022/11/06 11:27:02;;;;;;;4.10;3.90;;;13.10;99.90;;;;;;4889573;29;20487;-82
2022/11/06 11:29:32;;;;;;;4.43;4.20;;;13.30;99.90;;;;;;4884771;29;20491;-82
2022/11/06 11:32:04;;;;;;;4.23;4.03;;;13.40;99.90;;;;;;4887794;29;20507;-82
2022/11/06 11:34:36;;;;;;;4.10;3.93;;;12.90;99.90;;;;;;4894181;29;20453;-81
2022/11/06 11:37:06;;;;;;;4.50;4.20;;;12.80;99.90;;;;;;4890404;29;20452;-82
2022/11/06 11:39:38;;;;;;;3.90;3.80;;;12.90;99.90;;;;;;4889909;29;20466;-83
2022/11/06 11:42:17;;;;;;;4.03;3.83;;;12.90;99.90;;;;;;4895300;29;20459;-81
2022/11/06 11:44:45;;;;;;;3.80;3.60;;;12.70;99.90;;;;;;4892272;29;20499;-82
2022/11/06 11:47:23;;;;;;;3.70;3.60;;;13.10;99.90;;;;;;4894910;29;20459;-81
2022/11/06 11:49:53;;;;;;;3.93;3.83;;;13.30;99.90;;;;;;4895260;29;21208;-81
2022/11/06 11:52:22;;;;;;;3.67;3.57;;;13.50;99.90;;;;;;4893768;29;20464;-82
2022/11/06 11:54:54;;;;;;;3.80;3.70;;;13.20;99.90;;;;;;4898908;29;20555;-83
2022/11/06 11:57:24;;;;;;;3.80;3.60;;;12.80;99.90;;;;;;4898889;29;20458;-81
2022/11/06 11:59:56;;;;;;;3.80;3.67;;;13.20;99.90;;;;;;4899188;29;20464;-81
2022/11/06 12:02:28;;;;;;;3.80;3.60;;;13.30;99.90;;;;;;4900749;29;20806;-82
2022/11/06 12:05:01;;;;;;;3.50;3.30;;;13.20;99.90;;;;;;4895399;29;20519;-80
2022/11/06 12:07:31;;;;;;;5.07;4.77;;;12.50;99.90;;;;;;4896634;29;20491;-82
2022/11/06 12:10:01;;;;;;;3.47;3.27;;;13.10;99.90;;;;;;4893367;29;20466;-82
2022/11/06 12:12:31;;;;;;;3.93;3.70;;;13.10;99.90;;;;;;4893079;29;20876;-83
2022/11/06 12:15:18;;;;;;;3.43;3.33;;;13.00;99.90;;;;;;4886481;29;20495;-82
2022/11/06 12:17:52;;;;;;;4.10;3.90;;;12.80;99.90;;;;;;4889770;29;20461;-81
2022/11/06 12:20:38;;;;;;;6.40;6.00;;;12.80;99.90;;;;;;4886722;29;20474;-83
2022/11/06 12:23:13;;;;;;;4.20;4.00;;;13.20;99.90;;;;;;4888486;29;20520;-81
2022/11/06 12:25:44;;;;;;;7.60;7.20;;;13.30;99.90;;;;;;4890057;29;20823;-83
2022/11/06 12:28:17;;;;;;;3.80;3.60;;;13.20;99.90;;;;;;4890464;29;20447;-81
2022/11/06 12:31:00;;;;;;;4.47;4.27;;;12.70;99.90;;;;;;4894415;29;20957;-82
2022/11/06 12:33:29;;;;;;;10.63;9.10;;;12.80;99.90;;;;;;4894170;29;20447;-82
2022/11/06 12:36:20;;;;;;;4.90;4.70;;;12.50;99.90;;;;;;4887034;29;20611;-84
2022/11/06 12:38:55;;;;;;;4.80;4.50;;;12.90;99.90;;;;;;4889100;29;21027;-84
2022/11/06 12:41:29;;;;;;;5.57;5.27;;;12.60;99.90;;;;;;4888494;29;20461;-82
2022/11/06 12:43:58;;;;;;;3.97;3.80;;;12.60;99.90;;;;;;4887202;29;20490;-83
2022/11/06 12:46:44;;;;;;;4.90;4.70;;;12.40;99.90;;;;;;4887781;29;20487;-84
2022/11/06 12:49:35;;;;;;;4.40;4.10;;;12.50;99.90;;;;;;4890250;29;20477;-82
2022/11/06 12:52:21;;;;;;;4.93;4.63;;;12.80;99.90;;;;;;4885299;29;20476;-81
2022/11/06 12:55:10;;;;;;;3.30;3.20;;;12.70;99.90;;;;;;4882536;29;21021;-83
2022/11/06 12:57:48;;;;;;;3.30;3.20;;;13.00;99.90;;;;;;4887974;29;20461;-83
2022/11/06 13:00:19;;;;;;;3.13;3.03;;;13.00;99.90;;;;;;4885633;29;20884;-81
2022/11/06 13:03:17;;;;;;;3.10;3.00;;;13.00;99.90;;;;;;4887639;29;20455;-82
2022/11/06 13:05:53;;;;;;;2.90;2.80;;;12.70;99.90;;;;;;4891028;29;20660;-83
2022/11/06 13:08:34;;;;;;;3.20;3.00;;;12.90;99.90;;;;;;4899769;29;20526;-83
2022/11/06 13:11:12;;;;;;;2.80;2.70;;;12.80;99.90;;;;;;4890812;29;20451;-83
2022/11/06 13:13:52;;;;;;;3.07;2.97;;;12.50;99.90;;;;;;4889821;29;20510;-83
2022/11/06 13:16:30;;;;;;;3.00;2.90;;;12.50;99.90;;;;;;4890114;29;20582;-82
2022/11/06 13:19:05;;;;;;;3.10;2.90;;;12.40;99.90;;;;;;4895242;29;20450;-83
2022/11/06 13:21:55;;;;;;;3.10;3.00;;;12.50;99.90;;;;;;4892227;29;20461;-83
2022/11/06 13:24:30;;;;;;;4.83;4.43;;;12.50;99.90;;;;;;4888690;29;20996;-81
2022/11/06 13:27:02;;;;;;;3.47;3.27;;;12.50;99.90;;;;;;4891084;29;20481;-82
2022/11/06 13:29:31;;;;;;;2.80;2.70;;;12.50;99.90;;;;;;4888643;29;20459;-82
2022/11/06 13:32:04;;;;;;;3.00;2.90;;;12.20;99.90;;;;;;4891710;29;20523;-81
2022/11/06 13:34:35;;;;;;;3.33;3.10;;;12.20;99.90;;;;;;4891750;29;21004;-81